Main page
METAR-TAF:

METAR-TAF

Airports :

Alpine, Texas, United States

Alpine–Casparis Municipal Airport

latitude: 30-23-03N, longitude: 103-41-00W, elevation: 1376 m

Current weather observation

The report was made 13 minutes ago, at 23:55 UTC
Wind 6 kt from the West/Southwest
Temperature 22°C
Humidity 9%
Pressure 1014 hPa
Visibility: 16.1 km
Clear sky

METAR: KE38 262355Z AUTO 24006KT 10SM CLR 22/M12 A2993 RMK AO2 T02161118 10229 20202

Time: 18:08 (00:08 UTC)


TAF: missing

Weather observations and forecasts of more than 4000 airports (METAR and TAF reports).

The available stations are represented by yellow and red dots on the map.

Hover mouse over dot to see the name of the station.

Then click to see weather observations and forecasts.

To change the map : click on the green buttons with a black cross to zoom in, on the green button with a dash to zoom out, or on the green arrows for adjacent maps.


METAR-TAF: